Darstellungsparameter: Aktuell verwendete Einstellungen:
Skalierung der Graphiken ... ?
xyx+y,   Skalierungsfaktor:      Skalierung: Modus: x, Faktor: 1
Darstellungszeitraum ... ?
Vom - - bis: - -   Zeitraum: 09.03.2021 - 11.03.2021
Min/Max/Avg-Anzeige ... ?
Zeige MMA aktuell
Zeige MMA Monat
Zeige MMA alles
Zeige --A aktuell
Zeige --A Monat
Zeige --A alles
Keine MMA-Anzeige
MMA:
Minimum Maximum Average (ber die Originaldaten)
MMA-Basis: 14.04.2020 - 16.05.2020
Quicknavigation für Darstellung... ?
Tage:      1T, 2T, 3T, 5T -1T -2T -3T -5T +1T +2T +3T +5T
Wochen: 1W, 2W, 3W -1W -2W -3W +1W +2W +3W
Monate: 1M, 3M, 6M -1M -3M -6M +1M +3M +6M
Jahre:    1J, 3J, 5J, 10J -1J -3J -5J -10J +1J +3J +5J +10J
Nutze für die Darstellung ... ?
Originaldaten oder Mittelwerte auf ...
Stundenbasis Tagesbasis Wochenbasis
Monatsbasis Jahresbasis      Datenbasis: Original-Daten
Darstellen als:
Statistik (Auto) Statistik J:M      Darstellung:
Zur Graphik,    zurück zur Übersicht aller Sensoren.
 
Tabellarische Datenbersicht: ?
 
Sensor: Nr:Datum:Temp:Abs-Feuchte:Windchill:Wind:
Aussen-T/F 1 09-03-2021 00:00:00 0.3 C 4.65 g/m*3 0.3 C 0 km/h
2 09-03-2021 00:05:00 0.3 C 4.65 g/m*3 0.3 C 0 km/h
3 09-03-2021 00:10:00 0.3 C 4.65 g/m*3 0.3 C 0 km/h
4 09-03-2021 00:15:00 0.3 C 4.65 g/m*3 0.3 C 0 km/h
5 09-03-2021 00:20:00 0.3 C 4.65 g/m*3 0.3 C 0 km/h
6 09-03-2021 00:25:00 0.3 C 4.65 g/m*3 0.3 C 0 km/h
7 09-03-2021 00:30:00 0.3 C 4.65 g/m*3 0.3 C 0 km/h
8 09-03-2021 00:35:00 0.4 C 4.68 g/m*3 0.4 C 0 km/h
9 09-03-2021 00:40:00 0.4 C 4.68 g/m*3 0.4 C 0 km/h
10 09-03-2021 00:45:00 0.4 C 4.68 g/m*3 0.4 C 0 km/h
11 09-03-2021 00:50:00 0.4 C 4.68 g/m*3 0.4 C 0 km/h
12 09-03-2021 00:55:00 0.4 C 4.68 g/m*3 0.4 C 0 km/h
13 09-03-2021 01:00:00 0.4 C 4.68 g/m*3 0.4 C 1.6 km/h
14 09-03-2021 01:05:00 0.5 C 4.71 g/m*3 0.5 C 0 km/h
15 09-03-2021 01:10:00 0.6 C 4.8 g/m*3 0.6 C 0 km/h
16 09-03-2021 01:15:00 0.6 C 4.75 g/m*3 0.6 C 0 km/h
17 09-03-2021 01:20:00 0.5 C 4.71 g/m*3 0.5 C 0 km/h
18 09-03-2021 01:25:00 0.5 C 4.71 g/m*3 0.5 C 0 km/h
19 09-03-2021 01:30:00 0.6 C 4.75 g/m*3 0.6 C 1.6 km/h
20 09-03-2021 01:35:00 0.6 C 4.75 g/m*3 0.6 C 0 km/h
21 09-03-2021 01:40:00 0.6 C 4.75 g/m*3 0.6 C 0 km/h
22 09-03-2021 01:45:00 0.5 C 4.71 g/m*3 0.5 C 0 km/h
23 09-03-2021 01:50:00 0.5 C 4.71 g/m*3 0.5 C 0 km/h
24 09-03-2021 01:55:00 0.6 C 4.8 g/m*3 0.6 C 0 km/h
25 09-03-2021 02:00:00 0.6 C 4.75 g/m*3 0.6 C 0 km/h
Sensor: Nr:Datum:Temp:Abs-Feuchte:Windchill:Wind:
Aussen-T/F 26 09-03-2021 02:05:00 0.6 C 4.8 g/m*3 0.6 C 0 km/h
27 09-03-2021 02:10:00 0.6 C 4.8 g/m*3 0.6 C 0 km/h
28 09-03-2021 02:15:00 0.6 C 4.8 g/m*3 0.6 C 0 km/h
29 09-03-2021 02:20:00 0.6 C 4.75 g/m*3 0.6 C 0 km/h
30 09-03-2021 02:25:00 0.5 C 4.71 g/m*3 0.5 C 0 km/h
31 09-03-2021 02:30:00 0.5 C 4.71 g/m*3 0.5 C 0 km/h
32 09-03-2021 02:35:00 0.5 C 4.71 g/m*3 0.5 C 0 km/h
33 09-03-2021 02:40:00 0.4 C 4.68 g/m*3 0.4 C 0 km/h
34 09-03-2021 02:45:00 0.4 C 4.68 g/m*3 0.4 C 0 km/h
35 09-03-2021 02:50:00 0.4 C 4.68 g/m*3 0.4 C 0 km/h
36 09-03-2021 02:55:00 0.3 C 4.65 g/m*3 0.3 C 0 km/h
37 09-03-2021 03:00:00 0.3 C 4.65 g/m*3 0.3 C 0 km/h
38 09-03-2021 03:05:00 0.3 C 4.65 g/m*3 0.3 C 0 km/h
39 09-03-2021 03:10:00 0.2 C 4.62 g/m*3 0.2 C 0 km/h
40 09-03-2021 03:15:00 0.2 C 4.62 g/m*3 0.2 C 0 km/h
41 09-03-2021 03:20:00 0.2 C 4.62 g/m*3 0.2 C 0 km/h
42 09-03-2021 03:25:00 0.2 C 4.62 g/m*3 0.2 C 0 km/h
43 09-03-2021 03:30:00 0.2 C 4.62 g/m*3 0.2 C 0 km/h
44 09-03-2021 03:35:00 0.2 C 4.62 g/m*3 0.2 C 0 km/h
45 09-03-2021 03:40:00 0.2 C 4.62 g/m*3 0.2 C 0 km/h
46 09-03-2021 03:45:00 0.2 C 4.62 g/m*3 0.2 C 0 km/h
47 09-03-2021 03:50:00 0.2 C 4.62 g/m*3 0.2 C 0 km/h
48 09-03-2021 03:55:00 0.2 C 4.62 g/m*3 0.2 C 0 km/h
49 09-03-2021 04:00:00 0.2 C 4.62 g/m*3 0.2 C 0 km/h
50 09-03-2021 04:05:00 0.1 C 4.59 g/m*3 0.1 C 0 km/h
Sensor: Nr:Datum:Temp:Abs-Feuchte:Windchill:Wind:
Aussen-T/F 51 09-03-2021 04:10:00 0.1 C 4.63 g/m*3 0.1 C 0 km/h
52 09-03-2021 04:15:00 0.2 C 4.67 g/m*3 0.2 C 0 km/h
53 09-03-2021 04:20:00 0.2 C 4.67 g/m*3 0.2 C 0 km/h
54 09-03-2021 04:25:00 0.2 C 4.67 g/m*3 0.2 C 0 km/h
55 09-03-2021 04:30:00 0.2 C 4.67 g/m*3 0.2 C 0 km/h
56 09-03-2021 04:35:00 0.2 C 4.67 g/m*3 0.2 C 0 km/h
57 09-03-2021 04:40:00 0.2 C 4.67 g/m*3 0.2 C 0 km/h
58 09-03-2021 04:45:00 0.1 C 4.63 g/m*3 0.1 C 0 km/h
59 09-03-2021 04:50:00 0.1 C 4.63 g/m*3 0.1 C 0 km/h
60 09-03-2021 04:55:00 0.1 C 4.63 g/m*3 0.1 C 0 km/h
61 09-03-2021 05:00:00 0.1 C 4.63 g/m*3 0.1 C 0 km/h
62 09-03-2021 05:05:00 0.1 C 4.63 g/m*3 0.1 C 0 km/h
63 09-03-2021 05:10:00 0.1 C 4.63 g/m*3 0.1 C 0 km/h
64 09-03-2021 05:15:00 0.1 C 4.63 g/m*3 0.1 C 0 km/h
65 09-03-2021 05:20:00 0.1 C 4.63 g/m*3 0.1 C 0 km/h
66 09-03-2021 05:25:00 0.1 C 4.63 g/m*3 0.1 C 0 km/h
67 09-03-2021 05:30:00 0.1 C 4.63 g/m*3 0.1 C 0 km/h
68 09-03-2021 05:35:00 0.1 C 4.63 g/m*3 0.1 C 0 km/h
69 09-03-2021 05:40:00 0.1 C 4.63 g/m*3 0.1 C 3.2 km/h
70 09-03-2021 05:45:00 0.1 C 4.63 g/m*3 0.1 C 3.2 km/h
71 09-03-2021 05:50:00 0.1 C 4.63 g/m*3 0.1 C 0 km/h
72 09-03-2021 05:55:00 0.1 C 4.63 g/m*3 0.1 C 0 km/h
73 09-03-2021 06:00:00 0.1 C 4.63 g/m*3 0.1 C 0 km/h
74 09-03-2021 06:05:00 0.1 C 4.63 g/m*3 0.1 C 0 km/h
75 09-03-2021 06:10:00 0.1 C 4.63 g/m*3 0.1 C 0 km/h
Sensor: Nr:Datum:Temp:Abs-Feuchte:Windchill:Wind:
Aussen-T/F 76 09-03-2021 06:15:00 0.2 C 4.67 g/m*3 0.2 C 0 km/h
77 09-03-2021 06:20:00 0.2 C 4.67 g/m*3 0.2 C 0 km/h
78 09-03-2021 06:25:00 0.2 C 4.67 g/m*3 0.2 C 0 km/h
79 09-03-2021 06:30:00 0.1 C 4.63 g/m*3 0.1 C 0 km/h
80 09-03-2021 06:35:00 0.1 C 4.63 g/m*3 0.1 C 0 km/h
81 09-03-2021 06:40:00 0.1 C 4.63 g/m*3 0.1 C 0 km/h
82 09-03-2021 06:45:00 0 C 4.6 g/m*3 0 C 0 km/h
83 09-03-2021 06:50:00 0 C 4.6 g/m*3 0 C 0 km/h
84 09-03-2021 06:55:00 0 C 4.6 g/m*3 0 C 0 km/h
85 09-03-2021 07:00:00 0 C 4.6 g/m*3 0 C 0 km/h
86 09-03-2021 07:05:00 0 C 4.6 g/m*3 0 C 0 km/h
87 09-03-2021 07:10:00 0 C 4.6 g/m*3 0 C 0 km/h
88 09-03-2021 07:15:00 0 C 4.6 g/m*3 0 C 0 km/h
89 09-03-2021 07:20:00 -0.1 C 4.57 g/m*3 -0.1 C 0 km/h
90 09-03-2021 07:25:00 -0.1 C 4.57 g/m*3 -0.1 C 0 km/h
91 09-03-2021 07:30:00 -0.1 C 4.57 g/m*3 -0.1 C 0 km/h
92 09-03-2021 07:35:00 -0.1 C 4.57 g/m*3 -0.1 C 0 km/h
93 09-03-2021 07:40:00 -0.1 C 4.57 g/m*3 -0.1 C 0 km/h
94 09-03-2021 07:45:00 -0.1 C 4.57 g/m*3 -0.1 C 0 km/h
95 09-03-2021 07:50:00 -0.1 C 4.57 g/m*3 -0.1 C 0 km/h
96 09-03-2021 07:55:00 -0.1 C 4.57 g/m*3 -0.1 C 0 km/h
97 09-03-2021 08:00:00 -0.1 C 4.57 g/m*3 -0.1 C 0 km/h
98 09-03-2021 08:05:00 -0.1 C 4.57 g/m*3 -0.1 C 0 km/h
99 09-03-2021 08:10:00 0 C 4.6 g/m*3 0 C 0 km/h
100 09-03-2021 08:15:00 0.1 C 4.63 g/m*3 0.1 C 0 km/h
Sensor: Nr:Datum:Temp:Abs-Feuchte:Windchill:Wind:
Aussen-T/F 101 09-03-2021 08:20:00 0.2 C 4.67 g/m*3 0.2 C 0 km/h
102 09-03-2021 08:25:00 0.3 C 4.75 g/m*3 0.3 C 0 km/h
103 09-03-2021 08:30:00 0.4 C 4.78 g/m*3 0.4 C 1.6 km/h
104 09-03-2021 08:35:00 0.6 C 4.85 g/m*3 0.6 C 0 km/h
105 09-03-2021 08:40:00 0.7 C 4.88 g/m*3 0.7 C 0 km/h
106 09-03-2021 08:45:00 0.8 C 4.91 g/m*3 0.8 C 0 km/h
107 09-03-2021 08:50:00 0.9 C 4.95 g/m*3 0.9 C 3.2 km/h
108 09-03-2021 08:55:00 1.2 C 5.05 g/m*3 1.2 C 4.8 km/h
109 09-03-2021 09:00:00 1.3 C 5.09 g/m*3 1.3 C 4.8 km/h
110 09-03-2021 09:05:00 1.4 C 5.12 g/m*3 1.4 C 4.8 km/h
111 09-03-2021 09:10:00 1.5 C 5.16 g/m*3 1.5 C 3.2 km/h
112 09-03-2021 09:15:00 1.5 C 5.16 g/m*3 1.5 C 4.8 km/h
113 09-03-2021 09:20:00 1.6 C 5.14 g/m*3 1.6 C 3.2 km/h
114 09-03-2021 09:25:00 1.7 C 5.17 g/m*3 1.7 C 1.6 km/h
115 09-03-2021 09:30:00 1.8 C 5.21 g/m*3 1.8 C 4.8 km/h
116 09-03-2021 09:35:00 2 C 5.28 g/m*3 2 C 3.2 km/h
117 09-03-2021 09:40:00 2.2 C 5.35 g/m*3 2.2 C 1.6 km/h
118 09-03-2021 09:45:00 2.3 C 5.39 g/m*3 2.3 C 3.2 km/h
119 09-03-2021 09:50:00 2.6 C 5.44 g/m*3 2.6 C 4.8 km/h
120 09-03-2021 09:55:00 2.7 C 5.48 g/m*3 2.7 C 3.2 km/h
121 09-03-2021 10:00:00 2.9 C 5.55 g/m*3 2.9 C 4.8 km/h
122 09-03-2021 10:05:00 3.1 C 5.57 g/m*3 3.1 C 3.2 km/h
123 09-03-2021 10:10:00 3.2 C 5.54 g/m*3 3.2 C 4.8 km/h
124 09-03-2021 10:15:00 3.3 C 5.58 g/m*3 3.3 C 0 km/h
125 09-03-2021 10:20:00 3.5 C 5.66 g/m*3 3.5 C 3.2 km/h
Sensor: Nr:Datum:Temp:Abs-Feuchte:Windchill:Wind:
Aussen-T/F 126 09-03-2021 10:25:00 3.7 C 5.67 g/m*3 3.7 C 4.8 km/h
127 09-03-2021 10:30:00 3.9 C 5.68 g/m*3 2.32 C 6.4 km/h
128 09-03-2021 10:35:00 4.1 C 5.76 g/m*3 4.1 C 4.8 km/h
129 09-03-2021 10:40:00 4.3 C 5.77 g/m*3 4.3 C 4.8 km/h
130 09-03-2021 10:45:00 4.6 C 5.82 g/m*3 3.13 C 6.4 km/h
131 09-03-2021 10:50:00 4.8 C 5.83 g/m*3 3.36 C 6.4 km/h
132 09-03-2021 10:55:00 5 C 5.78 g/m*3 2.72 C 9.7 km/h
133 09-03-2021 11:00:00 5.2 C 5.78 g/m*3 3.34 C 8.1 km/h
134 09-03-2021 11:05:00 5.3 C 5.75 g/m*3 3.08 C 9.7 km/h
135 09-03-2021 11:10:00 5.4 C 5.65 g/m*3 2.32 C 14.5 km/h
136 09-03-2021 11:15:00 5.6 C 5.66 g/m*3 2.57 C 14.5 km/h
137 09-03-2021 11:20:00 5.6 C 5.73 g/m*3 3.11 C 11.3 km/h
138 09-03-2021 11:25:00 5.6 C 5.66 g/m*3 2.83 C 12.9 km/h
139 09-03-2021 11:30:00 5.7 C 5.62 g/m*3 2.95 C 12.9 km/h
140 09-03-2021 11:35:00 5.7 C 5.62 g/m*3 3.56 C 9.7 km/h
141 09-03-2021 11:40:00 5.7 C 5.69 g/m*3 3.56 C 9.7 km/h
142 09-03-2021 11:45:00 5.7 C 5.69 g/m*3 4.4 C 6.4 km/h
143 09-03-2021 11:50:00 5.7 C 5.69 g/m*3 3.93 C 8.1 km/h
144 09-03-2021 11:55:00 5.7 C 5.69 g/m*3 2.95 C 12.9 km/h
145 09-03-2021 12:00:00 5.7 C 5.76 g/m*3 3.93 C 8.1 km/h
146 09-03-2021 12:05:00 5.7 C 5.76 g/m*3 3.23 C 11.3 km/h
147 09-03-2021 12:10:00 5.7 C 5.76 g/m*3 3.56 C 9.7 km/h
148 09-03-2021 12:15:00 5.7 C 5.76 g/m*3 3.56 C 9.7 km/h
149 09-03-2021 12:20:00 5.7 C 5.69 g/m*3 2.03 C 19.3 km/h
150 09-03-2021 12:25:00 5.8 C 5.8 g/m*3 3.36 C 11.3 km/h
Sensor: Nr:Datum:Temp:Abs-Feuchte:Windchill:Wind:
Aussen-T/F 151 09-03-2021 12:30:00 5.8 C 5.87 g/m*3 4.52 C 6.4 km/h
152 09-03-2021 12:35:00 5.8 C 5.87 g/m*3 3.68 C 9.7 km/h
153 09-03-2021 12:40:00 5.7 C 5.91 g/m*3 2.95 C 12.9 km/h
154 09-03-2021 12:45:00 5.6 C 5.94 g/m*3 2.83 C 12.9 km/h
155 09-03-2021 12:50:00 5.6 C 6.01 g/m*3 3.44 C 9.7 km/h
156 09-03-2021 12:55:00 5.5 C 6.04 g/m*3 2.99 C 11.3 km/h
157 09-03-2021 13:00:00 5.5 C 6.04 g/m*3 3.32 C 9.7 km/h
158 09-03-2021 13:05:00 5.4 C 6 g/m*3 3.2 C 9.7 km/h
159 09-03-2021 13:10:00 5.4 C 6 g/m*3 3.2 C 9.7 km/h
160 09-03-2021 13:15:00 5.4 C 6.07 g/m*3 3.58 C 8.1 km/h
161 09-03-2021 13:20:00 5.4 C 6.07 g/m*3 3.2 C 9.7 km/h
162 09-03-2021 13:25:00 5.5 C 6.18 g/m*3 4.17 C 6.4 km/h
163 09-03-2021 13:30:00 5.6 C 6.22 g/m*3 3.44 C 9.7 km/h
164 09-03-2021 13:35:00 5.6 C 6.15 g/m*3 2.83 C 12.9 km/h
165 09-03-2021 13:40:00 5.5 C 6.11 g/m*3 3.32 C 9.7 km/h
166 09-03-2021 13:45:00 5.4 C 6.07 g/m*3 2.58 C 12.9 km/h
167 09-03-2021 13:50:00 5.3 C 6.03 g/m*3 3.08 C 9.7 km/h
168 09-03-2021 13:55:00 5.4 C 6.21 g/m*3 3.2 C 9.7 km/h
169 09-03-2021 14:00:00 5.4 C 6.21 g/m*3 3.2 C 9.7 km/h
170 09-03-2021 14:05:00 5.4 C 6.21 g/m*3 2.87 C 11.3 km/h
171 09-03-2021 14:10:00 5.4 C 6.21 g/m*3 3.2 C 9.7 km/h
172 09-03-2021 14:15:00 5.4 C 6.21 g/m*3 2.87 C 11.3 km/h
173 09-03-2021 14:20:00 5.3 C 6.17 g/m*3 3.46 C 8.1 km/h
174 09-03-2021 14:25:00 5.4 C 6.28 g/m*3 2.87 C 11.3 km/h
175 09-03-2021 14:30:00 5.4 C 6.28 g/m*3 3.58 C 8.1 km/h
Sensor: Nr:Datum:Temp:Abs-Feuchte:Windchill:Wind:
Aussen-T/F 176 09-03-2021 14:35:00 5.6 C 6.36 g/m*3 3.81 C 8.1 km/h
177 09-03-2021 14:40:00 5.6 C 6.36 g/m*3 3.11 C 11.3 km/h
178 09-03-2021 14:45:00 5.6 C 6.36 g/m*3 3.44 C 9.7 km/h
179 09-03-2021 14:50:00 5.7 C 6.4 g/m*3 3.56 C 9.7 km/h
180 09-03-2021 14:55:00 5.7 C 6.33 g/m*3 3.56 C 9.7 km/h
181 09-03-2021 15:00:00 5.6 C 6.29 g/m*3 3.81 C 8.1 km/h
182 09-03-2021 15:05:00 5.6 C 6.29 g/m*3 4.29 C 6.4 km/h
183 09-03-2021 15:10:00 5.5 C 6.25 g/m*3 2.99 C 11.3 km/h
184 09-03-2021 15:15:00 5.4 C 6.28 g/m*3 3.2 C 9.7 km/h
185 09-03-2021 15:20:00 5.3 C 6.24 g/m*3 3.08 C 9.7 km/h
186 09-03-2021 15:25:00 5.3 C 6.24 g/m*3 3.08 C 9.7 km/h
187 09-03-2021 15:30:00 5.3 C 6.24 g/m*3 3.08 C 9.7 km/h
188 09-03-2021 15:35:00 5.4 C 6.28 g/m*3 3.58 C 8.1 km/h
189 09-03-2021 15:40:00 5.3 C 6.24 g/m*3 3.94 C 6.4 km/h
190 09-03-2021 15:45:00 5.3 C 6.24 g/m*3 3.94 C 6.4 km/h
191 09-03-2021 15:50:00 5.3 C 6.24 g/m*3 3.46 C 8.1 km/h
192 09-03-2021 15:55:00 5.3 C 6.17 g/m*3 3.94 C 6.4 km/h
193 09-03-2021 16:00:00 5.3 C 6.17 g/m*3 3.46 C 8.1 km/h
194 09-03-2021 16:05:00 5.3 C 6.17 g/m*3 2.75 C 11.3 km/h
195 09-03-2021 16:10:00 5.3 C 6.17 g/m*3 3.46 C 8.1 km/h
196 09-03-2021 16:15:00 5.3 C 6.17 g/m*3 5.3 C 4.8 km/h
197 09-03-2021 16:20:00 5.3 C 6.17 g/m*3 2.75 C 11.3 km/h
198 09-03-2021 16:25:00 5.3 C 6.17 g/m*3 2.75 C 11.3 km/h
199 09-03-2021 16:30:00 5.3 C 6.17 g/m*3 2.75 C 11.3 km/h
200 09-03-2021 16:35:00 5.4 C 6.21 g/m*3 4.06 C 6.4 km/h
Sensor: Nr:Datum:Temp:Abs-Feuchte:Windchill:Wind:
Aussen-T/F 201 09-03-2021 16:40:00 5.4 C 6.21 g/m*3 5.4 C 4.8 km/h
202 09-03-2021 16:45:00 5.4 C 6.21 g/m*3 4.06 C 6.4 km/h
203 09-03-2021 16:50:00 5.5 C 6.25 g/m*3 4.17 C 6.4 km/h
204 09-03-2021 16:55:00 5.6 C 6.29 g/m*3 5.6 C 3.2 km/h
205 09-03-2021 17:00:00 5.6 C 6.29 g/m*3 4.29 C 6.4 km/h
206 09-03-2021 17:05:00 5.6 C 6.29 g/m*3 4.29 C 6.4 km/h
207 09-03-2021 17:10:00 5.6 C 6.29 g/m*3 5.6 C 3.2 km/h
208 09-03-2021 17:15:00 5.6 C 6.29 g/m*3 5.6 C 4.8 km/h
209 09-03-2021 17:20:00 5.6 C 6.29 g/m*3 5.6 C 3.2 km/h
210 09-03-2021 17:25:00 5.6 C 6.29 g/m*3 5.6 C 3.2 km/h
211 09-03-2021 17:30:00 5.6 C 6.36 g/m*3 5.6 C 0 km/h
212 09-03-2021 17:35:00 5.6 C 6.36 g/m*3 5.6 C 3.2 km/h
213 09-03-2021 17:40:00 5.5 C 6.32 g/m*3 5.5 C 0 km/h
214 09-03-2021 17:45:00 5.4 C 6.35 g/m*3 5.4 C 4.8 km/h
215 09-03-2021 17:50:00 5.4 C 6.35 g/m*3 5.4 C 1.6 km/h
216 09-03-2021 17:55:00 5.3 C 6.31 g/m*3 5.3 C 1.6 km/h
217 09-03-2021 18:00:00 5.3 C 6.31 g/m*3 5.3 C 0 km/h
218 09-03-2021 18:05:00 5.3 C 6.31 g/m*3 5.3 C 0 km/h
219 09-03-2021 18:10:00 5.2 C 6.33 g/m*3 5.2 C 0 km/h
220 09-03-2021 18:15:00 5.2 C 6.33 g/m*3 5.2 C 0 km/h
221 09-03-2021 18:20:00 5.2 C 6.33 g/m*3 5.2 C 0 km/h
222 09-03-2021 18:25:00 5.1 C 6.29 g/m*3 5.1 C 0 km/h
223 09-03-2021 18:30:00 5.1 C 6.29 g/m*3 5.1 C 1.6 km/h
224 09-03-2021 18:35:00 5.1 C 6.29 g/m*3 5.1 C 1.6 km/h
225 09-03-2021 18:40:00 5 C 6.32 g/m*3 5 C 1.6 km/h
Sensor: Nr:Datum:Temp:Abs-Feuchte:Windchill:Wind:
Aussen-T/F 226 09-03-2021 18:45:00 5 C 6.32 g/m*3 3.59 C 6.4 km/h
227 09-03-2021 18:50:00 5 C 6.32 g/m*3 5 C 4.8 km/h
228 09-03-2021 18:55:00 5 C 6.32 g/m*3 5 C 3.2 km/h
229 09-03-2021 19:00:00 5 C 6.32 g/m*3 5 C 1.6 km/h
230 09-03-2021 19:05:00 5 C 6.32 g/m*3 3.59 C 6.4 km/h
231 09-03-2021 19:10:00 5 C 6.39 g/m*3 5 C 3.2 km/h
232 09-03-2021 19:15:00 4.9 C 6.35 g/m*3 4.9 C 1.6 km/h
233 09-03-2021 19:20:00 4.9 C 6.35 g/m*3 4.9 C 1.6 km/h
234 09-03-2021 19:25:00 4.9 C 6.35 g/m*3 4.9 C 0 km/h
235 09-03-2021 19:30:00 4.9 C 6.35 g/m*3 4.9 C 0 km/h
236 09-03-2021 19:35:00 4.9 C 6.35 g/m*3 4.9 C 0 km/h
237 09-03-2021 19:40:00 4.9 C 6.35 g/m*3 4.9 C 0 km/h
238 09-03-2021 19:45:00 4.9 C 6.35 g/m*3 4.9 C 0 km/h
239 09-03-2021 19:50:00 4.8 C 6.3 g/m*3 4.8 C 0 km/h
240 09-03-2021 19:55:00 4.8 C 6.3 g/m*3 4.8 C 0 km/h
241 09-03-2021 20:00:00 4.8 C 6.3 g/m*3 4.8 C 3.2 km/h
242 09-03-2021 20:05:00 4.8 C 6.3 g/m*3 4.8 C 0 km/h
243 09-03-2021 20:10:00 4.8 C 6.3 g/m*3 4.8 C 0 km/h
244 09-03-2021 20:15:00 4.8 C 6.3 g/m*3 4.8 C 0 km/h
245 09-03-2021 20:20:00 4.7 C 6.26 g/m*3 4.7 C 0 km/h
246 09-03-2021 20:25:00 4.7 C 6.26 g/m*3 4.7 C 0 km/h
247 09-03-2021 20:30:00 4.7 C 6.26 g/m*3 4.7 C 1.6 km/h
248 09-03-2021 20:35:00 4.7 C 6.26 g/m*3 4.7 C 1.6 km/h
249 09-03-2021 20:40:00 4.7 C 6.33 g/m*3 4.7 C 1.6 km/h
250 09-03-2021 20:45:00 4.8 C 6.37 g/m*3 4.8 C 0 km/h
Sensor: Nr:Datum:Temp:Abs-Feuchte:Windchill:Wind:
Aussen-T/F 251 09-03-2021 20:50:00 4.7 C 6.26 g/m*3 4.7 C 0 km/h
252 09-03-2021 20:55:00 4.7 C 6.26 g/m*3 4.7 C 0 km/h
253 09-03-2021 21:00:00 4.7 C 6.33 g/m*3 4.7 C 3.2 km/h
254 09-03-2021 21:05:00 4.7 C 6.33 g/m*3 4.7 C 0 km/h
255 09-03-2021 21:10:00 4.7 C 6.33 g/m*3 4.7 C 0 km/h
256 09-03-2021 21:15:00 4.7 C 6.33 g/m*3 4.7 C 0 km/h
257 09-03-2021 21:20:00 4.7 C 6.33 g/m*3 4.7 C 0 km/h
258 09-03-2021 21:25:00 4.7 C 6.33 g/m*3 4.7 C 0 km/h
259 09-03-2021 21:30:00 4.7 C 6.33 g/m*3 4.7 C 1.6 km/h
260 09-03-2021 21:35:00 4.7 C 6.33 g/m*3 4.7 C 0 km/h
261 09-03-2021 21:40:00 4.7 C 6.33 g/m*3 4.7 C 3.2 km/h
262 09-03-2021 21:45:00 4.7 C 6.33 g/m*3 4.7 C 0 km/h
263 09-03-2021 21:50:00 4.7 C 6.33 g/m*3 4.7 C 0 km/h
264 09-03-2021 21:55:00 4.7 C 6.33 g/m*3 4.7 C 0 km/h
265 09-03-2021 22:00:00 4.7 C 6.33 g/m*3 4.7 C 0 km/h
266 09-03-2021 22:05:00 4.7 C 6.33 g/m*3 4.7 C 0 km/h
267 09-03-2021 22:10:00 4.6 C 6.29 g/m*3 4.6 C 0 km/h
268 09-03-2021 22:15:00 4.6 C 6.29 g/m*3 4.6 C 0 km/h
269 09-03-2021 22:20:00 4.5 C 6.24 g/m*3 4.5 C 1.6 km/h
270 09-03-2021 22:25:00 4.5 C 6.24 g/m*3 4.5 C 0 km/h
271 09-03-2021 22:30:00 4.4 C 6.2 g/m*3 4.4 C 1.6 km/h
272 09-03-2021 22:35:00 4.4 C 6.2 g/m*3 4.4 C 1.6 km/h
273 09-03-2021 22:40:00 4.4 C 6.2 g/m*3 4.4 C 1.6 km/h
274 09-03-2021 22:45:00 4.4 C 6.2 g/m*3 4.4 C 0 km/h
275 09-03-2021 22:50:00 4.4 C 6.2 g/m*3 4.4 C 0 km/h
Sensor: Nr:Datum:Temp:Abs-Feuchte:Windchill:Wind:
Aussen-T/F 276 09-03-2021 22:55:00 4.4 C 6.2 g/m*3 4.4 C 0 km/h
277 09-03-2021 23:00:00 4.4 C 6.2 g/m*3 4.4 C 1.6 km/h
278 09-03-2021 23:05:00 4.4 C 6.2 g/m*3 4.4 C 1.6 km/h
279 09-03-2021 23:10:00 4.4 C 6.2 g/m*3 4.4 C 1.6 km/h
280 09-03-2021 23:15:00 4.3 C 6.16 g/m*3 4.3 C 1.6 km/h
281 09-03-2021 23:20:00 4.3 C 6.16 g/m*3 4.3 C 3.2 km/h
282 09-03-2021 23:25:00 4.3 C 6.16 g/m*3 4.3 C 0 km/h
283 09-03-2021 23:30:00 4.3 C 6.16 g/m*3 4.3 C 0 km/h
284 09-03-2021 23:35:00 4.3 C 6.16 g/m*3 4.3 C 0 km/h
285 09-03-2021 23:40:00 4.3 C 6.16 g/m*3 4.3 C 1.6 km/h
286 09-03-2021 23:45:00 4.3 C 6.16 g/m*3 4.3 C 0 km/h
287 09-03-2021 23:50:00 4.3 C 6.16 g/m*3 4.3 C 3.2 km/h
288 09-03-2021 23:55:00 4.3 C 6.16 g/m*3 4.3 C 1.6 km/h
289 10-03-2021 00:00:00 4.3 C 6.16 g/m*3 4.3 C 1.6 km/h
290 10-03-2021 00:05:00 4.3 C 6.16 g/m*3 4.3 C 1.6 km/h
291 10-03-2021 00:10:00 4.3 C 6.16 g/m*3 4.3 C 0 km/h
292 10-03-2021 00:15:00 4.3 C 6.16 g/m*3 4.3 C 0 km/h
293 10-03-2021 00:20:00 4.2 C 6.12 g/m*3 4.2 C 1.6 km/h
294 10-03-2021 00:25:00 4.2 C 6.12 g/m*3 4.2 C 1.6 km/h
295 10-03-2021 00:30:00 4.2 C 6.12 g/m*3 4.2 C 3.2 km/h
296 10-03-2021 00:35:00 4.2 C 6.19 g/m*3 4.2 C 1.6 km/h
297 10-03-2021 00:40:00 4.2 C 6.19 g/m*3 4.2 C 0 km/h
298 10-03-2021 00:45:00 4.2 C 6.19 g/m*3 4.2 C 0 km/h
299 10-03-2021 00:50:00 4.2 C 6.19 g/m*3 4.2 C 0 km/h
300 10-03-2021 00:55:00 4.1 C 6.08 g/m*3 4.1 C 0 km/h
Sensor: Nr:Datum:Temp:Abs-Feuchte:Windchill:Wind:
Aussen-T/F 301 10-03-2021 01:00:00 4.1 C 6.08 g/m*3 4.1 C 0 km/h
302 10-03-2021 01:05:00 4 C 6.04 g/m*3 4 C 0 km/h
303 10-03-2021 01:10:00 4 C 6.04 g/m*3 4 C 3.2 km/h
304 10-03-2021 01:15:00 4 C 6.04 g/m*3 4 C 1.6 km/h
305 10-03-2021 01:20:00 4 C 6.04 g/m*3 4 C 0 km/h
306 10-03-2021 01:25:00 3.9 C 6 g/m*3 3.9 C 0 km/h
307 10-03-2021 01:30:00 3.9 C 6 g/m*3 3.9 C 0 km/h
308 10-03-2021 01:35:00 3.9 C 6 g/m*3 3.9 C 0 km/h
309 10-03-2021 01:40:00 3.9 C 6.06 g/m*3 3.9 C 3.2 km/h
310 10-03-2021 01:45:00 3.9 C 6.06 g/m*3 3.9 C 0 km/h
311 10-03-2021 01:50:00 3.8 C 6.02 g/m*3 3.8 C 3.2 km/h
312 10-03-2021 01:55:00 3.9 C 6.06 g/m*3 3.9 C 1.6 km/h
313 10-03-2021 02:00:00 3.9 C 6.06 g/m*3 3.9 C 1.6 km/h
314 10-03-2021 02:05:00 3.9 C 6.06 g/m*3 3.9 C 0 km/h
315 10-03-2021 02:10:00 3.8 C 6.02 g/m*3 3.8 C 3.2 km/h
316 10-03-2021 02:15:00 3.8 C 6.02 g/m*3 3.8 C 1.6 km/h
317 10-03-2021 02:20:00 3.8 C 6.02 g/m*3 3.8 C 0 km/h
318 10-03-2021 02:25:00 3.8 C 6.02 g/m*3 3.8 C 0 km/h
319 10-03-2021 02:30:00 3.8 C 6.02 g/m*3 3.8 C 1.6 km/h
320 10-03-2021 02:35:00 3.8 C 6.02 g/m*3 3.8 C 0 km/h
321 10-03-2021 02:40:00 3.8 C 6.02 g/m*3 3.8 C 1.6 km/h
322 10-03-2021 02:45:00 3.7 C 5.98 g/m*3 3.7 C 1.6 km/h
323 10-03-2021 02:50:00 3.8 C 6.02 g/m*3 3.8 C 0 km/h
324 10-03-2021 02:55:00 3.7 C 5.98 g/m*3 3.7 C 1.6 km/h
325 10-03-2021 03:00:00 3.7 C 5.98 g/m*3 3.7 C 1.6 km/h
Sensor: Nr:Datum:Temp:Abs-Feuchte:Windchill:Wind:
Aussen-T/F 326 10-03-2021 03:05:00 3.8 C 6.02 g/m*3 3.8 C 3.2 km/h
327 10-03-2021 03:10:00 3.8 C 6.02 g/m*3 3.8 C 3.2 km/h
328 10-03-2021 03:15:00 3.8 C 6.02 g/m*3 3.8 C 0 km/h
329 10-03-2021 03:20:00 3.8 C 6.02 g/m*3 3.8 C 1.6 km/h
330 10-03-2021 03:25:00 3.8 C 6.02 g/m*3 3.8 C 0 km/h
331 10-03-2021 03:30:00 3.8 C 6.02 g/m*3 3.8 C 0 km/h
332 10-03-2021 03:35:00 3.8 C 6.02 g/m*3 3.8 C 0 km/h
333 10-03-2021 03:40:00 3.8 C 6.02 g/m*3 3.8 C 0 km/h
334 10-03-2021 03:45:00 3.8 C 6.02 g/m*3 3.8 C 0 km/h
335 10-03-2021 03:50:00 3.8 C 6.02 g/m*3 3.8 C 0 km/h
336 10-03-2021 03:55:00 3.7 C 5.98 g/m*3 3.7 C 0 km/h
337 10-03-2021 04:00:00 3.8 C 6.02 g/m*3 3.8 C 3.2 km/h
338 10-03-2021 04:05:00 3.8 C 6.02 g/m*3 3.8 C 3.2 km/h
339 10-03-2021 04:10:00 3.8 C 6.02 g/m*3 3.8 C 0 km/h
340 10-03-2021 04:15:00 3.8 C 6.02 g/m*3 3.8 C 3.2 km/h
341 10-03-2021 04:20:00 3.8 C 6.02 g/m*3 3.8 C 0 km/h
342 10-03-2021 04:25:00 3.8 C 6.02 g/m*3 3.8 C 0 km/h
343 10-03-2021 04:30:00 3.8 C 6.02 g/m*3 3.8 C 0 km/h
344 10-03-2021 04:35:00 3.7 C 5.98 g/m*3 3.7 C 0 km/h
345 10-03-2021 04:40:00 3.7 C 5.98 g/m*3 3.7 C 0 km/h
346 10-03-2021 04:45:00 3.7 C 5.98 g/m*3 3.7 C 4.8 km/h
347 10-03-2021 04:50:00 3.7 C 5.98 g/m*3 3.7 C 1.6 km/h
348 10-03-2021 04:55:00 3.7 C 5.98 g/m*3 3.7 C 0 km/h
349 10-03-2021 05:00:00 3.7 C 5.98 g/m*3 3.7 C 1.6 km/h
350 10-03-2021 05:05:00 3.7 C 5.98 g/m*3 3.7 C 0 km/h
Sensor: Nr:Datum:Temp:Abs-Feuchte:Windchill:Wind:
Aussen-T/F 351 10-03-2021 05:10:00 3.7 C 5.98 g/m*3 3.7 C 0 km/h
352 10-03-2021 05:15:00 3.7 C 5.98 g/m*3 3.7 C 1.6 km/h
353 10-03-2021 05:20:00 3.7 C 5.98 g/m*3 3.7 C 1.6 km/h
354 10-03-2021 05:25:00 3.7 C 5.98 g/m*3 3.7 C 1.6 km/h
355 10-03-2021 05:30:00 3.7 C 5.98 g/m*3 3.7 C 0 km/h
356 10-03-2021 05:35:00 3.7 C 5.98 g/m*3 3.7 C 0 km/h
357 10-03-2021 05:40:00 3.7 C 5.98 g/m*3 3.7 C 1.6 km/h
358 10-03-2021 05:45:00 3.6 C 5.94 g/m*3 3.6 C 4.8 km/h
359 10-03-2021 05:50:00 3.6 C 5.94 g/m*3 3.6 C 4.8 km/h
360 10-03-2021 05:55:00 3.7 C 5.98 g/m*3 3.7 C 1.6 km/h
361 10-03-2021 06:00:00 3.7 C 5.98 g/m*3 3.7 C 1.6 km/h
362 10-03-2021 06:05:00 3.7 C 5.98 g/m*3 3.7 C 0 km/h
363 10-03-2021 06:10:00 3.7 C 5.98 g/m*3 3.7 C 0 km/h
364 10-03-2021 06:15:00 3.7 C 5.92 g/m*3 3.7 C 0 km/h
365 10-03-2021 06:20:00 3.6 C 5.88 g/m*3 3.6 C 0 km/h
366 10-03-2021 06:25:00 3.6 C 5.88 g/m*3 3.6 C 0 km/h
367 10-03-2021 06:30:00 3.6 C 5.88 g/m*3 3.6 C 0 km/h
368 10-03-2021 06:35:00 3.6 C 5.88 g/m*3 3.6 C 0 km/h
369 10-03-2021 06:40:00 3.6 C 5.88 g/m*3 3.6 C 0 km/h
370 10-03-2021 06:45:00 3.5 C 5.84 g/m*3 3.5 C 0 km/h
371 10-03-2021 06:50:00 3.5 C 5.84 g/m*3 3.5 C 0 km/h
372 10-03-2021 06:55:00 3.5 C 5.9 g/m*3 3.5 C 1.6 km/h
373 10-03-2021 07:00:00 3.5 C 5.9 g/m*3 3.5 C 4.8 km/h
374 10-03-2021 07:05:00 3.6 C 5.94 g/m*3 3.6 C 3.2 km/h
375 10-03-2021 07:10:00 3.7 C 5.98 g/m*3 3.7 C 0 km/h
Sensor: Nr:Datum:Temp:Abs-Feuchte:Windchill:Wind:
Aussen-T/F 376 10-03-2021 07:15:00 3.7 C 5.98 g/m*3 3.7 C 1.6 km/h
377 10-03-2021 07:20:00 3.7 C 5.98 g/m*3 3.7 C 3.2 km/h
378 10-03-2021 07:25:00 3.7 C 5.92 g/m*3 3.7 C 1.6 km/h
379 10-03-2021 07:30:00 3.7 C 5.92 g/m*3 3.7 C 4.8 km/h
380 10-03-2021 07:35:00 3.7 C 5.92 g/m*3 1.18 C 9.7 km/h
381 10-03-2021 07:40:00 3.7 C 5.92 g/m*3 1.58 C 8.1 km/h
382 10-03-2021 07:45:00 3.8 C 5.96 g/m*3 3.8 C 4.8 km/h
383 10-03-2021 07:50:00 3.8 C 6.02 g/m*3 3.8 C 1.6 km/h
384 10-03-2021 07:55:00 3.8 C 6.02 g/m*3 3.8 C 4.8 km/h
385 10-03-2021 08:00:00 3.9 C 6.06 g/m*3 3.9 C 4.8 km/h
386 10-03-2021 08:05:00 4 C 6.1 g/m*3 4 C 0 km/h
387 10-03-2021 08:10:00 4.1 C 6.14 g/m*3 4.1 C 0 km/h
388 10-03-2021 08:15:00 4.1 C 6.08 g/m*3 2.55 C 6.4 km/h
389 10-03-2021 08:20:00 4.2 C 6.19 g/m*3 4.2 C 4.8 km/h
390 10-03-2021 08:25:00 4.2 C 6.19 g/m*3 4.2 C 4.8 km/h
391 10-03-2021 08:30:00 4.3 C 6.16 g/m*3 4.3 C 1.6 km/h
392 10-03-2021 08:35:00 4.3 C 6.16 g/m*3 2.78 C 6.4 km/h
393 10-03-2021 08:40:00 4.4 C 6.2 g/m*3 4.4 C 4.8 km/h
394 10-03-2021 08:45:00 4.4 C 6.2 g/m*3 4.4 C 4.8 km/h
395 10-03-2021 08:50:00 4.6 C 6.29 g/m*3 4.6 C 4.8 km/h
396 10-03-2021 08:55:00 4.6 C 6.29 g/m*3 3.13 C 6.4 km/h
397 10-03-2021 09:00:00 4.7 C 6.33 g/m*3 4.7 C 4.8 km/h
398 10-03-2021 09:05:00 4.8 C 6.37 g/m*3 3.36 C 6.4 km/h
399 10-03-2021 09:10:00 4.8 C 6.37 g/m*3 4.8 C 0 km/h
400 10-03-2021 09:15:00 4.9 C 6.41 g/m*3 4.9 C 0 km/h
Sensor: Nr:Datum:Temp:Abs-Feuchte:Windchill:Wind:
Aussen-T/F 401 10-03-2021 09:20:00 5.1 C 6.5 g/m*3 5.1 C 1.6 km/h
402 10-03-2021 09:25:00 5.2 C 6.54 g/m*3 5.2 C 4.8 km/h
403 10-03-2021 09:30:00 5.3 C 6.52 g/m*3 5.3 C 4.8 km/h
404 10-03-2021 09:35:00 5.4 C 6.56 g/m*3 5.4 C 3.2 km/h
405 10-03-2021 09:40:00 5.4 C 6.56 g/m*3 3.58 C 8.1 km/h
406 10-03-2021 09:45:00 5.5 C 6.6 g/m*3 5.5 C 1.6 km/h
407 10-03-2021 09:50:00 5.7 C 6.69 g/m*3 5.7 C 3.2 km/h
408 10-03-2021 09:55:00 5.8 C 6.66 g/m*3 5.8 C 1.6 km/h
409 10-03-2021 10:00:00 5.9 C 6.71 g/m*3 5.9 C 3.2 km/h
410 10-03-2021 10:05:00 6.1 C 6.72 g/m*3 6.1 C 3.2 km/h
411 10-03-2021 10:10:00 6.3 C 6.81 g/m*3 6.3 C 3.2 km/h
412 10-03-2021 10:15:00 6.4 C 6.78 g/m*3 6.4 C 4.8 km/h
413 10-03-2021 10:20:00 6.5 C 6.82 g/m*3 6.5 C 4.8 km/h
414 10-03-2021 10:25:00 6.7 C 6.91 g/m*3 6.7 C 4.8 km/h
415 10-03-2021 10:30:00 6.8 C 6.88 g/m*3 5.67 C 6.4 km/h
416 10-03-2021 10:35:00 6.9 C 6.93 g/m*3 6.9 C 4.8 km/h
417 10-03-2021 10:40:00 6.9 C 6.85 g/m*3 5.34 C 8.1 km/h
418 10-03-2021 10:45:00 6.9 C 6.85 g/m*3 4.68 C 11.3 km/h
419 10-03-2021 10:50:00 6.8 C 6.81 g/m*3 5.22 C 8.1 km/h
420 10-03-2021 10:55:00 6.9 C 6.85 g/m*3 5.34 C 8.1 km/h
421 10-03-2021 11:00:00 6.9 C 6.85 g/m*3 4.99 C 9.7 km/h
422 10-03-2021 11:05:00 6.9 C 6.85 g/m*3 4.99 C 9.7 km/h
423 10-03-2021 11:10:00 6.9 C 6.85 g/m*3 6.9 C 1.6 km/h
424 10-03-2021 11:15:00 6.9 C 6.85 g/m*3 5.79 C 6.4 km/h
425 10-03-2021 11:20:00 6.9 C 6.85 g/m*3 6.9 C 4.8 km/h
Sensor: Nr:Datum:Temp:Abs-Feuchte:Windchill:Wind:
Aussen-T/F 426 10-03-2021 11:25:00 6.9 C 6.85 g/m*3 5.34 C 8.1 km/h
427 10-03-2021 11:30:00 6.9 C 6.85 g/m*3 6.9 C 4.8 km/h
428 10-03-2021 11:35:00 6.9 C 6.85 g/m*3 6.9 C 4.8 km/h
429 10-03-2021 11:40:00 6.9 C 6.85 g/m*3 6.9 C 4.8 km/h
430 10-03-2021 11:45:00 7 C 6.9 g/m*3 5.9 C 6.4 km/h
431 10-03-2021 11:50:00 7.1 C 6.94 g/m*3 6.02 C 6.4 km/h
432 10-03-2021 11:55:00 7.2 C 6.99 g/m*3 7.2 C 3.2 km/h
433 10-03-2021 12:00:00 7.2 C 6.99 g/m*3 6.13 C 6.4 km/h
434 10-03-2021 12:05:00 7.3 C 6.95 g/m*3 5.16 C 11.3 km/h
435 10-03-2021 12:10:00 7.3 C 6.95 g/m*3 5.81 C 8.1 km/h
436 10-03-2021 12:15:00 7.5 C 7.04 g/m*3 5.7 C 9.7 km/h
437 10-03-2021 12:20:00 7.6 C 7.09 g/m*3 5.82 C 9.7 km/h
438 10-03-2021 12:25:00 7.7 C 7.05 g/m*3 6.28 C 8.1 km/h
439 10-03-2021 12:30:00 7.8 C 7.1 g/m*3 5.77 C 11.3 km/h
440 10-03-2021 12:35:00 7.9 C 7.15 g/m*3 6.18 C 9.7 km/h
441 10-03-2021 12:40:00 7.9 C 7.06 g/m*3 5.63 C 12.9 km/h
442 10-03-2021 12:45:00 8.1 C 7.16 g/m*3 6.42 C 9.7 km/h
443 10-03-2021 12:50:00 8.2 C 7.2 g/m*3 6.54 C 9.7 km/h
444 10-03-2021 12:55:00 8.3 C 7.25 g/m*3 7.41 C 6.4 km/h
445 10-03-2021 13:00:00 8.4 C 7.3 g/m*3 6.78 C 9.7 km/h
446 10-03-2021 13:05:00 8.6 C 7.3 g/m*3 7.01 C 9.7 km/h
447 10-03-2021 13:10:00 8.7 C 7.26 g/m*3 6.85 C 11.3 km/h
448 10-03-2021 13:15:00 8.8 C 7.31 g/m*3 6.72 C 12.9 km/h
449 10-03-2021 13:20:00 8.9 C 7.27 g/m*3 7.37 C 9.7 km/h
450 10-03-2021 13:25:00 9 C 7.32 g/m*3 7.49 C 9.7 km/h
Sensor: Nr:Datum:Temp:Abs-Feuchte:Windchill:Wind:
Aussen-T/F 451 10-03-2021 13:30:00 9.2 C 7.32 g/m*3 6.79 C 16.1 km/h
452 10-03-2021 13:35:00 9.3 C 7.19 g/m*3 7.33 C 12.9 km/h
453 10-03-2021 13:40:00 9.6 C 7.24 g/m*3 7.7 C 12.9 km/h
454 10-03-2021 13:45:00 9.7 C 7.28 g/m*3 7.82 C 12.9 km/h
455 10-03-2021 13:50:00 9.9 C 7.28 g/m*3 7.66 C 16.1 km/h
456 10-03-2021 13:55:00 10.1 C 7.28 g/m*3 8.1 C 14.5 km/h
457 10-03-2021 14:00:00 10.2 C 7.04 g/m*3 7.86 C 17.7 km/h
458 10-03-2021 14:05:00 10.3 C 7.09 g/m*3 7.98 C 17.7 km/h
459 10-03-2021 14:10:00 10.3 C 7.18 g/m*3 8.78 C 11.3 km/h
460 10-03-2021 14:15:00 10.4 C 7.13 g/m*3 8.67 C 12.9 km/h
461 10-03-2021 14:20:00 10.6 C 7.12 g/m*3 9.4 C 9.7 km/h
462 10-03-2021 14:25:00 10.7 C 7.07 g/m*3 8.65 C 16.1 km/h
463 10-03-2021 14:30:00 10.8 C 7.02 g/m*3 9.38 C 11.3 km/h
464 10-03-2021 14:35:00 10.9 C 6.96 g/m*3 9.08 C 14.5 km/h
465 10-03-2021 14:40:00 10.9 C 6.86 g/m*3 9.08 C 14.5 km/h
466 10-03-2021 14:45:00 11 C 6.81 g/m*3 8.86 C 17.7 km/h
467 10-03-2021 14:50:00 11 C 6.81 g/m*3 9.63 C 11.3 km/h
468 10-03-2021 14:55:00 11 C 6.71 g/m*3 9.02 C 16.1 km/h
469 10-03-2021 15:00:00 11.1 C 6.65 g/m*3 11.1 C 14.5 km/h
470 10-03-2021 15:05:00 11.1 C 6.65 g/m*3 11.1 C 12.9 km/h
471 10-03-2021 15:10:00 11.2 C 6.59 g/m*3 11.2 C 12.9 km/h
472 10-03-2021 15:15:00 11.2 C 6.49 g/m*3 11.2 C 14.5 km/h
473 10-03-2021 15:20:00 11.2 C 6.49 g/m*3 11.2 C 11.3 km/h
474 10-03-2021 15:25:00 11.2 C 6.59 g/m*3 11.2 C 9.7 km/h
475 10-03-2021 15:30:00 11.2 C 6.39 g/m*3 11.2 C 12.9 km/h
Sensor: Nr:Datum:Temp:Abs-Feuchte:Windchill:Wind:
Aussen-T/F 476 10-03-2021 15:35:00 11.2 C 6.39 g/m*3 11.2 C 11.3 km/h
477 10-03-2021 15:40:00 11.2 C 6.49 g/m*3 11.2 C 6.4 km/h
478 10-03-2021 15:45:00 11.2 C 6.39 g/m*3 11.2 C 6.4 km/h
479 10-03-2021 15:50:00 11.2 C 6.39 g/m*3 11.2 C 6.4 km/h
480 10-03-2021 15:55:00 11.2 C 6.28 g/m*3 11.2 C 4.8 km/h
481 10-03-2021 16:00:00 11.2 C 6.28 g/m*3 11.2 C 0 km/h
482 10-03-2021 16:05:00 11.2 C 6.39 g/m*3 11.2 C 0 km/h
483 10-03-2021 16:10:00 11.1 C 6.25 g/m*3 11.1 C 6.4 km/h
484 10-03-2021 16:15:00 11.1 C 6.35 g/m*3 11.1 C 3.2 km/h
485 10-03-2021 16:20:00 11.1 C 6.45 g/m*3 11.1 C 6.4 km/h
486 10-03-2021 16:25:00 11.1 C 6.45 g/m*3 11.1 C 0 km/h
487 10-03-2021 16:30:00 11.1 C 6.55 g/m*3 11.1 C 0 km/h
488 10-03-2021 16:35:00 11.1 C 6.55 g/m*3 11.1 C 0 km/h
489 10-03-2021 16:40:00 11 C 6.51 g/m*3 11 C 0 km/h
490 10-03-2021 16:45:00 10.9 C 6.47 g/m*3 9.76 C 9.7 km/h
491 10-03-2021 16:50:00 10.9 C 6.47 g/m*3 10.9 C 4.8 km/h
492 10-03-2021 16:55:00 10.8 C 6.33 g/m*3 10.29 C 6.4 km/h
493 10-03-2021 17:00:00 10.8 C 6.33 g/m*3 10.8 C 4.8 km/h
494 10-03-2021 17:05:00 10.7 C 6.29 g/m*3 10.7 C 3.2 km/h
495 10-03-2021 17:10:00 10.7 C 6.29 g/m*3 10.7 C 1.6 km/h
496 10-03-2021 17:15:00 10.7 C 6.29 g/m*3 10.18 C 6.4 km/h
497 10-03-2021 17:20:00 10.6 C 6.34 g/m*3 10.6 C 0 km/h
498 10-03-2021 17:25:00 10.6 C 6.44 g/m*3 10.6 C 0 km/h
499 10-03-2021 17:30:00 10.5 C 6.5 g/m*3 10.5 C 0 km/h
500 10-03-2021 17:35:00 10.4 C 6.36 g/m*3 10.4 C 0 km/h
Sensor: Nr:Datum:Temp:Abs-Feuchte:Windchill:Wind:
Aussen-T/F 501 10-03-2021 17:40:00 10.3 C 6.42 g/m*3 10.3 C 0 km/h
502 10-03-2021 17:45:00 10.2 C 6.47 g/m*3 10.2 C 0 km/h
503 10-03-2021 17:50:00 10.1 C 6.52 g/m*3 9.1 C 8.1 km/h
504 10-03-2021 17:55:00 10 C 6.48 g/m*3 10 C 0 km/h
505 10-03-2021 18:00:00 9.9 C 6.26 g/m*3 9.9 C 0 km/h
506 10-03-2021 18:05:00 9.8 C 6.4 g/m*3 9.8 C 0 km/h
507 10-03-2021 18:10:00 9.8 C 6.4 g/m*3 9.8 C 0 km/h
508 10-03-2021 18:15:00 9.7 C 6.45 g/m*3 9.7 C 0 km/h
509 10-03-2021 18:20:00 9.6 C 6.5 g/m*3 9.6 C 0 km/h
510 10-03-2021 18:25:00 9.4 C 6.42 g/m*3 9.4 C 0 km/h
511 10-03-2021 18:30:00 9.3 C 6.38 g/m*3 9.3 C 0 km/h
512 10-03-2021 18:35:00 9.3 C 6.38 g/m*3 8.56 C 6.4 km/h
513 10-03-2021 18:40:00 9.2 C 6.43 g/m*3 9.2 C 0 km/h
514 10-03-2021 18:45:00 9.1 C 6.39 g/m*3 9.1 C 0 km/h
515 10-03-2021 18:50:00 9.1 C 6.39 g/m*3 7.93 C 8.1 km/h
516 10-03-2021 18:55:00 9 C 6.44 g/m*3 9 C 1.6 km/h
517 10-03-2021 19:00:00 8.9 C 6.31 g/m*3 8.9 C 3.2 km/h
518 10-03-2021 19:05:00 8.9 C 6.31 g/m*3 8.9 C 0 km/h
519 10-03-2021 19:10:00 8.9 C 6.31 g/m*3 8.9 C 0 km/h
520 10-03-2021 19:15:00 8.9 C 6.22 g/m*3 8.9 C 0 km/h
521 10-03-2021 19:20:00 8.9 C 6.31 g/m*3 8.9 C 0 km/h
522 10-03-2021 19:25:00 8.9 C 6.31 g/m*3 8.9 C 0 km/h
523 10-03-2021 19:30:00 8.8 C 6.35 g/m*3 8.8 C 0 km/h
524 10-03-2021 19:35:00 8.8 C 6.35 g/m*3 8.8 C 0 km/h
525 10-03-2021 19:40:00 8.7 C 6.4 g/m*3 8.7 C 0 km/h
Sensor: Nr:Datum:Temp:Abs-Feuchte:Windchill:Wind:
Aussen-T/F 526 10-03-2021 19:45:00 8.7 C 6.49 g/m*3 8.7 C 0 km/h
527 10-03-2021 19:50:00 8.5 C 6.4 g/m*3 8.5 C 0 km/h
528 10-03-2021 19:55:00 8.4 C 6.36 g/m*3 8.4 C 0 km/h
529 10-03-2021 20:00:00 8.3 C 6.41 g/m*3 8.3 C 0 km/h
530 10-03-2021 20:05:00 8.3 C 6.41 g/m*3 8.3 C 0 km/h
531 10-03-2021 20:10:00 8.2 C 6.45 g/m*3 8.2 C 0 km/h
532 10-03-2021 20:15:00 8.2 C 6.53 g/m*3 8.2 C 0 km/h
533 10-03-2021 20:20:00 8.1 C 6.49 g/m*3 8.1 C 0 km/h
534 10-03-2021 20:25:00 8 C 6.45 g/m*3 8 C 0 km/h
535 10-03-2021 20:30:00 7.9 C 6.41 g/m*3 7.9 C 0 km/h
536 10-03-2021 20:35:00 7.8 C 6.37 g/m*3 7.8 C 0 km/h
537 10-03-2021 20:40:00 7.8 C 6.45 g/m*3 7.8 C 0 km/h
538 10-03-2021 20:45:00 7.8 C 6.45 g/m*3 7.8 C 0 km/h
539 10-03-2021 20:50:00 7.7 C 6.41 g/m*3 7.7 C 0 km/h
540 10-03-2021 20:55:00 7.7 C 6.32 g/m*3 7.7 C 0 km/h
541 10-03-2021 21:00:00 7.7 C 6.41 g/m*3 7.7 C 0 km/h
542 10-03-2021 21:05:00 7.7 C 6.41 g/m*3 7.7 C 3.2 km/h
543 10-03-2021 21:10:00 7.7 C 6.41 g/m*3 7.7 C 0 km/h
544 10-03-2021 21:15:00 7.7 C 6.41 g/m*3 7.7 C 0 km/h
545 10-03-2021 21:20:00 7.7 C 6.32 g/m*3 7.7 C 1.6 km/h
546 10-03-2021 21:25:00 7.8 C 6.28 g/m*3 7.8 C 0 km/h
547 10-03-2021 21:30:00 7.9 C 6.41 g/m*3 7.9 C 0 km/h
548 10-03-2021 21:35:00 8 C 6.37 g/m*3 8 C 4.8 km/h
549 10-03-2021 21:40:00 8.1 C 6.49 g/m*3 8.1 C 0 km/h
550 10-03-2021 21:45:00 8.1 C 6.49 g/m*3 8.1 C 0 km/h
Sensor: Nr:Datum:Temp:Abs-Feuchte:Windchill:Wind:
Aussen-T/F 551 10-03-2021 21:50:00 8.1 C 6.24 g/m*3 8.1 C 3.2 km/h
552 10-03-2021 21:55:00 8.1 C 6.24 g/m*3 8.1 C 4.8 km/h
553 10-03-2021 22:00:00 8.2 C 6.11 g/m*3 8.2 C 1.6 km/h
554 10-03-2021 22:05:00 8.3 C 6.24 g/m*3 8.3 C 0 km/h
555 10-03-2021 22:10:00 8.3 C 6.15 g/m*3 8.3 C 0 km/h
556 10-03-2021 22:15:00 8.3 C 6.15 g/m*3 8.3 C 0 km/h
557 10-03-2021 22:20:00 8.4 C 6.02 g/m*3 8.4 C 0 km/h
558 10-03-2021 22:25:00 8.5 C 5.98 g/m*3 8.5 C 0 km/h
559 10-03-2021 22:30:00 8.6 C 6.02 g/m*3 8.6 C 3.2 km/h
560 10-03-2021 22:35:00 8.7 C 6.05 g/m*3 7.46 C 8.1 km/h
561 10-03-2021 22:40:00 8.8 C 6.09 g/m*3 7.25 C 9.7 km/h
562 10-03-2021 22:45:00 8.9 C 6.22 g/m*3 8.9 C 4.8 km/h
563 10-03-2021 22:50:00 8.9 C 6.39 g/m*3 6.06 C 19.3 km/h
564 10-03-2021 22:55:00 8.8 C 6.53 g/m*3 7.58 C 8.1 km/h
565 10-03-2021 23:00:00 8.7 C 6.57 g/m*3 7.87 C 6.4 km/h
566 10-03-2021 23:05:00 8.4 C 6.62 g/m*3 6.01 C 14.5 km/h
567 10-03-2021 23:10:00 8.3 C 6.57 g/m*3 6.37 C 11.3 km/h
568 10-03-2021 23:15:00 8.2 C 6.7 g/m*3 8.2 C 3.2 km/h
569 10-03-2021 23:20:00 8.1 C 6.74 g/m*3 5.87 C 12.9 km/h
570 10-03-2021 23:25:00 7.9 C 6.74 g/m*3 7.9 C 3.2 km/h
571 10-03-2021 23:30:00 7.8 C 6.86 g/m*3 6.83 C 6.4 km/h
572 10-03-2021 23:35:00 7.6 C 6.85 g/m*3 7.6 C 4.8 km/h
573 10-03-2021 23:40:00 7.3 C 6.79 g/m*3 5.81 C 8.1 km/h
574 10-03-2021 23:45:00 7.2 C 6.83 g/m*3 7.2 C 3.2 km/h
575 10-03-2021 23:50:00 7.1 C 6.86 g/m*3 7.1 C 4.8 km/h
Sensor: Nr:Datum:Temp:Abs-Feuchte:Windchill:Wind:
Aussen-T/F 576 10-03-2021 23:55:00 6.9 C 6.85 g/m*3 6.9 C 4.8 km/h
577 11-03-2021 00:00:00 6.8 C 6.81 g/m*3 6.8 C 0 km/h
578 11-03-2021 00:05:00 6.7 C 6.84 g/m*3 6.7 C 4.8 km/h
579 11-03-2021 00:10:00 6.7 C 6.84 g/m*3 6.7 C 3.2 km/h
580 11-03-2021 00:15:00 6.6 C 6.79 g/m*3 6.6 C 3.2 km/h
581 11-03-2021 00:20:00 6.5 C 6.75 g/m*3 6.5 C 0 km/h
582 11-03-2021 00:25:00 6.4 C 6.78 g/m*3 6.4 C 0 km/h
583 11-03-2021 00:30:00 6.4 C 6.78 g/m*3 6.4 C 4.8 km/h
584 11-03-2021 00:35:00 6.4 C 6.78 g/m*3 6.4 C 3.2 km/h
585 11-03-2021 00:40:00 6.3 C 6.81 g/m*3 6.3 C 3.2 km/h
586 11-03-2021 00:45:00 6.3 C 6.74 g/m*3 6.3 C 4.8 km/h
587 11-03-2021 00:50:00 6.3 C 6.81 g/m*3 6.3 C 4.8 km/h
588 11-03-2021 00:55:00 6.3 C 6.81 g/m*3 6.3 C 1.6 km/h
589 11-03-2021 01:00:00 6.3 C 6.81 g/m*3 6.3 C 4.8 km/h
590 11-03-2021 01:05:00 6.3 C 6.81 g/m*3 4.64 C 8.1 km/h
591 11-03-2021 01:10:00 6.3 C 6.81 g/m*3 6.3 C 0 km/h
592 11-03-2021 01:15:00 6.3 C 6.81 g/m*3 6.3 C 3.2 km/h
593 11-03-2021 01:20:00 6.3 C 6.81 g/m*3 6.3 C 3.2 km/h
594 11-03-2021 01:25:00 6.3 C 6.81 g/m*3 5.1 C 6.4 km/h
595 11-03-2021 01:30:00 6.3 C 6.81 g/m*3 6.3 C 3.2 km/h
596 11-03-2021 01:35:00 6.3 C 6.81 g/m*3 5.1 C 6.4 km/h
597 11-03-2021 01:40:00 6.4 C 6.85 g/m*3 5.21 C 6.4 km/h
598 11-03-2021 01:45:00 6.4 C 6.85 g/m*3 6.4 C 3.2 km/h
599 11-03-2021 01:50:00 6.4 C 6.85 g/m*3 6.4 C 3.2 km/h
600 11-03-2021 01:55:00 6.4 C 6.85 g/m*3 6.4 C 4.8 km/h
Sensor: Nr:Datum:Temp:Abs-Feuchte:Windchill:Wind:
Aussen-T/F 601 11-03-2021 02:00:00 6.4 C 6.85 g/m*3 6.4 C 1.6 km/h
602 11-03-2021 02:05:00 6.4 C 6.78 g/m*3 4.39 C 9.7 km/h
603 11-03-2021 02:10:00 6.6 C 6.87 g/m*3 4.63 C 9.7 km/h
604 11-03-2021 02:15:00 6.6 C 6.79 g/m*3 4.99 C 8.1 km/h
605 11-03-2021 02:20:00 6.7 C 6.91 g/m*3 6.7 C 4.8 km/h
606 11-03-2021 02:25:00 6.7 C 6.91 g/m*3 5.56 C 6.4 km/h
607 11-03-2021 02:30:00 6.8 C 6.81 g/m*3 4.87 C 9.7 km/h
608 11-03-2021 02:35:00 7 C 6.74 g/m*3 4.53 C 12.9 km/h
609 11-03-2021 02:40:00 7.2 C 6.75 g/m*3 3.75 C 20.9 km/h
610 11-03-2021 02:45:00 7.3 C 6.72 g/m*3 5.16 C 11.3 km/h
611 11-03-2021 02:50:00 7.6 C 6.77 g/m*3 4.81 C 16.1 km/h
612 11-03-2021 02:55:00 7.6 C 6.77 g/m*3 7.6 C 4.8 km/h
613 11-03-2021 03:00:00 7.6 C 6.69 g/m*3 5.53 C 11.3 km/h
614 11-03-2021 03:05:00 7.7 C 6.65 g/m*3 6.28 C 8.1 km/h
615 11-03-2021 03:10:00 7.8 C 6.61 g/m*3 5.51 C 12.9 km/h
616 11-03-2021 03:15:00 7.8 C 6.69 g/m*3 6.83 C 6.4 km/h
617 11-03-2021 03:20:00 7.8 C 6.69 g/m*3 6.83 C 6.4 km/h
618 11-03-2021 03:25:00 7.8 C 6.69 g/m*3 6.06 C 9.7 km/h
619 11-03-2021 03:30:00 7.9 C 6.74 g/m*3 6.94 C 6.4 km/h
620 11-03-2021 03:35:00 7.9 C 6.82 g/m*3 6.18 C 9.7 km/h
621 11-03-2021 03:40:00 7.9 C 6.74 g/m*3 6.52 C 8.1 km/h
622 11-03-2021 03:45:00 7.9 C 6.74 g/m*3 5.63 C 12.9 km/h
623 11-03-2021 03:50:00 8 C 6.78 g/m*3 5.52 C 14.5 km/h
624 11-03-2021 03:55:00 8.1 C 6.82 g/m*3 8.1 C 4.8 km/h
625 11-03-2021 04:00:00 8.1 C 6.82 g/m*3 5.64 C 14.5 km/h
Sensor: Nr:Datum:Temp:Abs-Feuchte:Windchill:Wind:
Aussen-T/F 626 11-03-2021 04:05:00 8.1 C 6.82 g/m*3 8.1 C 3.2 km/h
627 11-03-2021 04:10:00 8.1 C 6.82 g/m*3 5.87 C 12.9 km/h
628 11-03-2021 04:15:00 8.1 C 6.82 g/m*3 7.17 C 6.4 km/h
629 11-03-2021 04:20:00 8.1 C 6.82 g/m*3 6.13 C 11.3 km/h
630 11-03-2021 04:25:00 8.2 C 6.87 g/m*3 5.99 C 12.9 km/h
631 11-03-2021 04:30:00 8.2 C 6.87 g/m*3 5.55 C 16.1 km/h
632 11-03-2021 04:35:00 8.2 C 6.87 g/m*3 5.76 C 14.5 km/h
633 11-03-2021 04:40:00 8.2 C 6.87 g/m*3 5.36 C 17.7 km/h
634 11-03-2021 04:45:00 8.3 C 6.91 g/m*3 4.09 C 33.8 km/h
635 11-03-2021 04:50:00 8.4 C 6.96 g/m*3 4.22 C 33.8 km/h
636 11-03-2021 04:55:00 8.4 C 6.96 g/m*3 5.61 C 17.7 km/h
637 11-03-2021 05:00:00 8.4 C 6.96 g/m*3 5.43 C 19.3 km/h
638 11-03-2021 05:05:00 8.3 C 6.91 g/m*3 5.14 C 20.9 km/h
639 11-03-2021 05:10:00 8.3 C 7 g/m*3 4.7 C 25.7 km/h
640 11-03-2021 05:15:00 8.3 C 7 g/m*3 5.89 C 14.5 km/h
641 11-03-2021 05:20:00 8.3 C 7.08 g/m*3 5.89 C 14.5 km/h
642 11-03-2021 05:25:00 8.3 C 7.08 g/m*3 5.48 C 17.7 km/h
643 11-03-2021 05:30:00 8.4 C 7.13 g/m*3 4.83 C 25.7 km/h
644 11-03-2021 05:35:00 8.4 C 7.13 g/m*3 4.83 C 25.7 km/h
645 11-03-2021 05:40:00 8.3 C 7.08 g/m*3 4.56 C 27.4 km/h
646 11-03-2021 05:45:00 8.3 C 7.16 g/m*3 4.56 C 27.4 km/h
647 11-03-2021 05:50:00 8.3 C 7.16 g/m*3 4.56 C 27.4 km/h
648 11-03-2021 05:55:00 8.3 C 7.25 g/m*3 5.68 C 16.1 km/h
649 11-03-2021 06:00:00 8.3 C 7.25 g/m*3 5.48 C 17.7 km/h
650 11-03-2021 06:05:00 8.2 C 7.2 g/m*3 5.76 C 14.5 km/h
Sensor: Nr:Datum:Temp:Abs-Feuchte:Windchill:Wind:
Aussen-T/F 651 11-03-2021 06:10:00 8.2 C 7.29 g/m*3 5.76 C 14.5 km/h
652 11-03-2021 06:15:00 8.2 C 7.29 g/m*3 5.18 C 19.3 km/h
653 11-03-2021 06:20:00 8.2 C 7.29 g/m*3 5.01 C 20.9 km/h
654 11-03-2021 06:25:00 8.2 C 7.29 g/m*3 5.76 C 14.5 km/h
655 11-03-2021 06:30:00 8.3 C 7.33 g/m*3 5.48 C 17.7 km/h
656 11-03-2021 06:35:00 8.3 C 7.33 g/m*3 5.48 C 17.7 km/h
657 11-03-2021 06:40:00 8.3 C 7.33 g/m*3 6.37 C 11.3 km/h
658 11-03-2021 06:45:00 8.3 C 7.33 g/m*3 6.99 C 8.1 km/h
659 11-03-2021 06:50:00 8.3 C 7.42 g/m*3 5.48 C 17.7 km/h
660 11-03-2021 06:55:00 8.4 C 7.38 g/m*3 6.01 C 14.5 km/h
661 11-03-2021 07:00:00 8.4 C 7.38 g/m*3 6.49 C 11.3 km/h
662 11-03-2021 07:05:00 8.5 C 7.43 g/m*3 6.13 C 14.5 km/h
663 11-03-2021 07:10:00 8.6 C 7.48 g/m*3 6.48 C 12.9 km/h
664 11-03-2021 07:15:00 8.7 C 7.52 g/m*3 5.65 C 20.9 km/h
665 11-03-2021 07:20:00 8.8 C 7.57 g/m*3 6.5 C 14.5 km/h
666 11-03-2021 07:25:00 8.9 C 7.53 g/m*3 6.23 C 17.7 km/h
667 11-03-2021 07:30:00 9 C 7.58 g/m*3 6.03 C 20.9 km/h
668 11-03-2021 07:35:00 9.1 C 7.63 g/m*3 7.33 C 11.3 km/h
669 11-03-2021 07:40:00 9.1 C 7.63 g/m*3 6 C 22.5 km/h
670 11-03-2021 07:45:00 9.1 C 7.63 g/m*3 7.09 C 12.9 km/h
671 11-03-2021 07:50:00 9.2 C 7.68 g/m*3 6.99 C 14.5 km/h
672 11-03-2021 07:55:00 9.2 C 7.68 g/m*3 6.79 C 16.1 km/h
673 11-03-2021 08:00:00 9.3 C 7.73 g/m*3 6.92 C 16.1 km/h
674 11-03-2021 08:05:00 9.4 C 7.78 g/m*3 5.98 C 27.4 km/h
675 11-03-2021 08:10:00 9.5 C 7.83 g/m*3 6.82 C 19.3 km/h
Sensor: Nr:Datum:Temp:Abs-Feuchte:Windchill:Wind:
Aussen-T/F 676 11-03-2021 08:15:00 9.6 C 7.88 g/m*3 6.79 C 20.9 km/h
677 11-03-2021 08:20:00 9.6 C 7.88 g/m*3 6.94 C 19.3 km/h
678 11-03-2021 08:25:00 9.7 C 7.93 g/m*3 6.77 C 22.5 km/h
679 11-03-2021 08:30:00 9.8 C 7.89 g/m*3 7.54 C 16.1 km/h
680 11-03-2021 08:35:00 9.8 C 7.89 g/m*3 7.04 C 20.9 km/h
681 11-03-2021 08:40:00 9.9 C 7.94 g/m*3 7.66 C 16.1 km/h
682 11-03-2021 08:45:00 9.9 C 7.94 g/m*3 7.66 C 16.1 km/h
683 11-03-2021 08:50:00 10 C 7.99 g/m*3 7.01 C 24.1 km/h
684 11-03-2021 08:55:00 10.2 C 8.09 g/m*3 7.27 C 24.1 km/h
685 11-03-2021 09:00:00 10.2 C 8.09 g/m*3 8.03 C 16.1 km/h
686 11-03-2021 09:05:00 10.3 C 8.14 g/m*3 8.16 C 16.1 km/h
687 11-03-2021 09:10:00 10.3 C 8.14 g/m*3 7.82 C 19.3 km/h
688 11-03-2021 09:15:00 10.4 C 8.1 g/m*3 7.95 C 19.3 km/h
689 11-03-2021 09:20:00 10.5 C 8.15 g/m*3 7.19 C 30.6 km/h
690 11-03-2021 09:25:00 10.7 C 8.15 g/m*3 8.18 C 20.9 km/h
691 11-03-2021 09:30:00 10.7 C 8.15 g/m*3 8.18 C 20.9 km/h
692 11-03-2021 09:35:00 10.8 C 8.2 g/m*3 9.16 C 12.9 km/h
693 11-03-2021 09:40:00 10.8 C 8.2 g/m*3 8.96 C 14.5 km/h
694 11-03-2021 09:45:00 10.9 C 8.26 g/m*3 8.9 C 16.1 km/h
695 11-03-2021 09:50:00 11 C 8.31 g/m*3 8.42 C 22.5 km/h
696 11-03-2021 09:55:00 11.1 C 8.36 g/m*3 11.1 C 12.9 km/h
697 11-03-2021 10:00:00 11.1 C 8.36 g/m*3 11.1 C 16.1 km/h
698 11-03-2021 10:05:00 11.2 C 8.41 g/m*3 11.2 C 32.2 km/h
699 11-03-2021 10:10:00 11.4 C 8.42 g/m*3 11.4 C 17.7 km/h
700 11-03-2021 10:15:00 11.5 C 8.47 g/m*3 11.5 C 25.7 km/h
Sensor: Nr:Datum:Temp:Abs-Feuchte:Windchill:Wind:
Aussen-T/F 701 11-03-2021 10:20:00 11.6 C 8.52 g/m*3 11.6 C 25.7 km/h
702 11-03-2021 10:25:00 11.7 C 8.58 g/m*3 11.7 C 17.7 km/h
703 11-03-2021 10:30:00 11.8 C 8.63 g/m*3 11.8 C 19.3 km/h
704 11-03-2021 10:35:00 11.8 C 8.63 g/m*3 11.8 C 19.3 km/h
705 11-03-2021 10:40:00 11.9 C 8.68 g/m*3 11.9 C 16.1 km/h
706 11-03-2021 10:45:00 11.9 C 8.68 g/m*3 11.9 C 25.7 km/h
707 11-03-2021 10:50:00 11.9 C 8.68 g/m*3 11.9 C 19.3 km/h
708 11-03-2021 10:55:00 11.9 C 8.68 g/m*3 11.9 C 17.7 km/h
709 11-03-2021 11:00:00 11.9 C 8.79 g/m*3 11.9 C 19.3 km/h
710 11-03-2021 11:05:00 12 C 8.85 g/m*3 12 C 16.1 km/h
711 11-03-2021 11:10:00 12.1 C 8.9 g/m*3 12.1 C 19.3 km/h
712 11-03-2021 11:15:00 11.9 C 9 g/m*3 11.9 C 24.1 km/h
713 11-03-2021 11:20:00 11.7 C 8.99 g/m*3 11.7 C 17.7 km/h
714 11-03-2021 11:25:00 11.6 C 9.04 g/m*3 11.6 C 14.5 km/h
715 11-03-2021 11:30:00 11.5 C 9.09 g/m*3 11.5 C 11.3 km/h
716 11-03-2021 11:35:00 11.4 C 9.14 g/m*3 11.4 C 6.4 km/h
717 11-03-2021 11:40:00 11.3 C 9.08 g/m*3 11.3 C 8.1 km/h
718 11-03-2021 11:45:00 11.3 C 9.18 g/m*3 11.3 C 4.8 km/h
719 11-03-2021 11:50:00 11.2 C 9.12 g/m*3 11.2 C 12.9 km/h
720 11-03-2021 11:55:00 11.1 C 9.17 g/m*3 11.1 C 11.3 km/h
721 11-03-2021 12:00:00 10.9 C 9.05 g/m*3 9.08 C 14.5 km/h
722 11-03-2021 12:05:00 10.6 C 8.88 g/m*3 8.36 C 17.7 km/h
723 11-03-2021 12:10:00 10.4 C 8.87 g/m*3 8.47 C 14.5 km/h
724 11-03-2021 12:15:00 10.4 C 8.87 g/m*3 8.67 C 12.9 km/h
725 11-03-2021 12:20:00 10.4 C 8.87 g/m*3 9.16 C 9.7 km/h
Sensor: Nr:Datum:Temp:Abs-Feuchte:Windchill:Wind:
Aussen-T/F 726 11-03-2021 12:25:00 10.8 C 9.29 g/m*3 9.38 C 11.3 km/h
727 11-03-2021 12:30:00 10.9 C 9.25 g/m*3 8.9 C 16.1 km/h
728 11-03-2021 12:35:00 10.9 C 9.15 g/m*3 8.9 C 16.1 km/h
729 11-03-2021 12:40:00 11.1 C 9.27 g/m*3 11.1 C 20.9 km/h
730 11-03-2021 12:45:00 11.2 C 9.22 g/m*3 11.2 C 20.9 km/h
731 11-03-2021 12:50:00 11.3 C 9.28 g/m*3 11.3 C 17.7 km/h
732 11-03-2021 12:55:00 11.5 C 9.4 g/m*3 11.5 C 22.5 km/h
733 11-03-2021 13:00:00 11.8 C 9.58 g/m*3 11.8 C 11.3 km/h
734 11-03-2021 13:05:00 12.1 C 9.65 g/m*3 12.1 C 24.1 km/h
735 11-03-2021 13:10:00 12.3 C 9.77 g/m*3 12.3 C 14.5 km/h
736 11-03-2021 13:15:00 12.6 C 9.74 g/m*3 12.6 C 20.9 km/h
737 11-03-2021 13:20:00 12.8 C 9.97 g/m*3 12.8 C 12.9 km/h
738 11-03-2021 13:25:00 13 C 9.64 g/m*3 13 C 14.5 km/h
739 11-03-2021 13:30:00 12.9 C 9.47 g/m*3 12.9 C 19.3 km/h
740 11-03-2021 13:35:00 12.9 C 9.35 g/m*3 12.9 C 24.1 km/h
741 11-03-2021 13:40:00 12.8 C 9.3 g/m*3 12.8 C 12.9 km/h
742 11-03-2021 13:45:00 12.8 C 9.07 g/m*3 12.8 C 25.7 km/h
743 11-03-2021 13:50:00 12.9 C 9.13 g/m*3 12.9 C 24.1 km/h
744 11-03-2021 13:55:00 13 C 9.19 g/m*3 13 C 12.9 km/h
745 11-03-2021 14:00:00 12.9 C 9.13 g/m*3 12.9 C 14.5 km/h
746 11-03-2021 14:05:00 12.2 C 8.31 g/m*3 12.2 C 27.4 km/h
747 11-03-2021 14:10:00 10.7 C 8.15 g/m*3 7.45 C 30.6 km/h
748 11-03-2021 14:15:00 9.8 C 8.07 g/m*3 7.36 C 17.7 km/h
749 11-03-2021 14:20:00 9.6 C 8.15 g/m*3 7.29 C 16.1 km/h
750 11-03-2021 14:25:00 9.6 C 8.34 g/m*3 8.21 C 9.7 km/h
Sensor: Nr:Datum:Temp:Abs-Feuchte:Windchill:Wind:
Aussen-T/F 751 11-03-2021 14:30:00 9.7 C 8.48 g/m*3 7.41 C 16.1 km/h
752 11-03-2021 14:35:00 9.8 C 8.54 g/m*3 7.73 C 14.5 km/h
753 11-03-2021 14:40:00 9.8 C 8.54 g/m*3 8.75 C 8.1 km/h
754 11-03-2021 14:45:00 9.9 C 8.59 g/m*3 9.25 C 6.4 km/h
755 11-03-2021 14:50:00 10.1 C 8.7 g/m*3 6.66 C 30.6 km/h
756 11-03-2021 14:55:00 9.6 C 7.97 g/m*3 5.61 C 37 km/h
757 11-03-2021 15:00:00 9.3 C 7.91 g/m*3 5.62 C 30.6 km/h
758 11-03-2021 15:05:00 9.2 C 8.04 g/m*3 7.21 C 12.9 km/h
759 11-03-2021 15:10:00 9.2 C 8.04 g/m*3 6.28 C 20.9 km/h
760 11-03-2021 15:15:00 9.2 C 8.04 g/m*3 6.44 C 19.3 km/h
761 11-03-2021 15:20:00 9.3 C 8.09 g/m*3 6.56 C 19.3 km/h
762 11-03-2021 15:25:00 9.4 C 8.14 g/m*3 6.86 C 17.7 km/h
763 11-03-2021 15:30:00 9.7 C 8.2 g/m*3 7.23 C 17.7 km/h
764 11-03-2021 15:35:00 9.9 C 8.12 g/m*3 7.02 C 22.5 km/h
765 11-03-2021 15:40:00 10.3 C 8.24 g/m*3 7.82 C 19.3 km/h
766 11-03-2021 15:45:00 10.6 C 8.49 g/m*3 8.71 C 14.5 km/h
767 11-03-2021 15:50:00 10.9 C 8.45 g/m*3 8.73 C 17.7 km/h
768 11-03-2021 15:55:00 11.2 C 8.51 g/m*3 11.2 C 12.9 km/h
769 11-03-2021 16:00:00 11.5 C 8.37 g/m*3 11.5 C 25.7 km/h
770 11-03-2021 16:05:00 11.8 C 8.42 g/m*3 11.8 C 17.7 km/h
771 11-03-2021 16:10:00 12.1 C 8.36 g/m*3 12.1 C 20.9 km/h
772 11-03-2021 16:15:00 12.3 C 8.36 g/m*3 12.3 C 16.1 km/h
773 11-03-2021 16:20:00 12.6 C 8.63 g/m*3 12.6 C 8.1 km/h
774 11-03-2021 16:25:00 12.5 C 8.36 g/m*3 12.5 C 12.9 km/h
775 11-03-2021 16:30:00 12.4 C 8.52 g/m*3 12.4 C 9.7 km/h
Sensor: Nr:Datum:Temp:Abs-Feuchte:Windchill:Wind:
Aussen-T/F 776 11-03-2021 16:35:00 12.3 C 8.25 g/m*3 12.3 C 14.5 km/h
777 11-03-2021 16:40:00 12.2 C 8.09 g/m*3 12.2 C 17.7 km/h
778 11-03-2021 16:45:00 12.1 C 7.94 g/m*3 12.1 C 17.7 km/h
779 11-03-2021 16:50:00 12.1 C 7.83 g/m*3 12.1 C 27.4 km/h
780 11-03-2021 16:55:00 11.9 C 7.52 g/m*3 11.9 C 29 km/h
781 11-03-2021 17:00:00 11.9 C 7.63 g/m*3 11.9 C 22.5 km/h
782 11-03-2021 17:05:00 11.8 C 7.68 g/m*3 11.8 C 20.9 km/h
783 11-03-2021 17:10:00 11.6 C 7.69 g/m*3 11.6 C 27.4 km/h
784 11-03-2021 17:20:00 11.1 C 7.66 g/m*3 11.1 C 30.6 km/h
785 11-03-2021 17:25:00 11.1 C 7.66 g/m*3 11.1 C 17.7 km/h
786 11-03-2021 17:30:00 11.1 C 7.66 g/m*3 11.1 C 12.9 km/h
787 11-03-2021 17:35:00 10.9 C 7.66 g/m*3 9.28 C 12.9 km/h
788 11-03-2021 17:40:00 10.8 C 7.71 g/m*3 9.38 C 11.3 km/h
789 11-03-2021 17:45:00 10.7 C 7.56 g/m*3 9.26 C 11.3 km/h
790 11-03-2021 17:50:00 10.7 C 7.46 g/m*3 8.84 C 14.5 km/h
791 11-03-2021 17:55:00 10.6 C 7.22 g/m*3 8.53 C 16.1 km/h
792 11-03-2021 18:00:00 10.5 C 7.37 g/m*3 8.8 C 12.9 km/h
793 11-03-2021 18:05:00 10.3 C 7.18 g/m*3 8.34 C 14.5 km/h
794 11-03-2021 18:10:00 10.1 C 7.19 g/m*3 8.8 C 9.7 km/h
795 11-03-2021 18:15:00 9.9 C 7.1 g/m*3 8.87 C 8.1 km/h
796 11-03-2021 18:20:00 9.7 C 7.1 g/m*3 8.33 C 9.7 km/h
797 11-03-2021 18:25:00 9.7 C 7.19 g/m*3 8.63 C 8.1 km/h
798 11-03-2021 18:30:00 9.6 C 7.15 g/m*3 9.6 C 4.8 km/h
799 11-03-2021 18:35:00 9.6 C 7.15 g/m*3 7.94 C 11.3 km/h
800 11-03-2021 18:40:00 9.6 C 7.24 g/m*3 6.64 C 22.5 km/h
Sensor: Nr:Datum:Temp:Abs-Feuchte:Windchill:Wind:
Aussen-T/F 801 11-03-2021 18:45:00 9.4 C 7.15 g/m*3 6.86 C 17.7 km/h
802 11-03-2021 18:50:00 9.3 C 7.1 g/m*3 6.73 C 17.7 km/h
803 11-03-2021 18:55:00 9.2 C 6.97 g/m*3 5.72 C 27.4 km/h
804 11-03-2021 19:00:00 9.2 C 6.88 g/m*3 6.13 C 22.5 km/h
805 11-03-2021 19:05:00 9.1 C 6.83 g/m*3 6.31 C 19.3 km/h
806 11-03-2021 19:10:00 8.9 C 6.75 g/m*3 6.62 C 14.5 km/h
807 11-03-2021 19:15:00 8.8 C 6.7 g/m*3 6.5 C 14.5 km/h
808 11-03-2021 19:20:00 8.7 C 6.66 g/m*3 6.17 C 16.1 km/h
809 11-03-2021 19:25:00 8.7 C 6.66 g/m*3 5.65 C 20.9 km/h
810 11-03-2021 19:30:00 8.7 C 6.66 g/m*3 6.85 C 11.3 km/h
811 11-03-2021 19:35:00 8.6 C 6.62 g/m*3 6.48 C 12.9 km/h
812 11-03-2021 19:40:00 8.5 C 6.57 g/m*3 7.22 C 8.1 km/h
813 11-03-2021 19:45:00 8.4 C 6.62 g/m*3 6.24 C 12.9 km/h
814 11-03-2021 19:50:00 8.3 C 6.57 g/m*3 5.89 C 14.5 km/h
815 11-03-2021 19:55:00 8.3 C 6.57 g/m*3 6.37 C 11.3 km/h
816 11-03-2021 20:00:00 8.3 C 6.57 g/m*3 5.31 C 19.3 km/h
817 11-03-2021 20:05:00 8.3 C 6.57 g/m*3 4.84 C 24.1 km/h
818 11-03-2021 20:10:00 8.4 C 6.53 g/m*3 5.11 C 22.5 km/h
819 11-03-2021 20:15:00 8.5 C 6.66 g/m*3 4.95 C 25.7 km/h
820 11-03-2021 20:20:00 8.4 C 6.62 g/m*3 5.11 C 22.5 km/h
821 11-03-2021 20:25:00 8.4 C 6.62 g/m*3 5.8 C 16.1 km/h
822 11-03-2021 20:30:00 8.4 C 6.53 g/m*3 5.61 C 17.7 km/h
823 11-03-2021 20:35:00 8.4 C 6.53 g/m*3 5.43 C 19.3 km/h
824 11-03-2021 20:40:00 8.4 C 6.53 g/m*3 5.8 C 16.1 km/h
825 11-03-2021 20:45:00 8.4 C 6.62 g/m*3 4.96 C 24.1 km/h
Sensor: Nr:Datum:Temp:Abs-Feuchte:Windchill:Wind:
Aussen-T/F 826 11-03-2021 20:50:00 8.4 C 6.53 g/m*3 4.44 C 30.6 km/h
827 11-03-2021 20:55:00 8.3 C 6.57 g/m*3 6.37 C 11.3 km/h
828 11-03-2021 21:00:00 8.3 C 6.57 g/m*3 5.48 C 17.7 km/h
829 11-03-2021 21:05:00 8.2 C 6.53 g/m*3 5.36 C 17.7 km/h
830 11-03-2021 21:10:00 8.2 C 6.53 g/m*3 5.55 C 16.1 km/h
831 11-03-2021 21:15:00 8.1 C 6.49 g/m*3 6.75 C 8.1 km/h
832 11-03-2021 21:20:00 8 C 6.45 g/m*3 6.64 C 8.1 km/h
833 11-03-2021 21:25:00 7.9 C 6.49 g/m*3 5.18 C 16.1 km/h
834 11-03-2021 21:30:00 7.9 C 6.57 g/m*3 5.39 C 14.5 km/h
835 11-03-2021 21:35:00 7.9 C 6.57 g/m*3 6.18 C 9.7 km/h
836 11-03-2021 21:40:00 7.9 C 6.57 g/m*3 5.39 C 14.5 km/h
837 11-03-2021 21:45:00 8 C 6.61 g/m*3 6.01 C 11.3 km/h
838 11-03-2021 21:50:00 8.1 C 6.57 g/m*3 5.64 C 14.5 km/h
839 11-03-2021 21:55:00 8.2 C 6.62 g/m*3 5.18 C 19.3 km/h
840 11-03-2021 22:00:00 8.2 C 6.53 g/m*3 5.55 C 16.1 km/h
841 11-03-2021 22:05:00 8.1 C 6.49 g/m*3 5.23 C 17.7 km/h
842 11-03-2021 22:10:00 8.1 C 6.57 g/m*3 5.43 C 16.1 km/h
843 11-03-2021 22:15:00 7.9 C 6.41 g/m*3 5.63 C 12.9 km/h
844 11-03-2021 22:20:00 7.9 C 6.49 g/m*3 5.89 C 11.3 km/h
845 11-03-2021 22:25:00 7.8 C 6.37 g/m*3 5.77 C 11.3 km/h
846 11-03-2021 22:30:00 7.7 C 6.41 g/m*3 5.94 C 9.7 km/h
847 11-03-2021 22:35:00 7.6 C 6.36 g/m*3 5.26 C 12.9 km/h
848 11-03-2021 22:40:00 7.6 C 6.36 g/m*3 4.61 C 17.7 km/h
849 11-03-2021 22:45:00 7.6 C 6.36 g/m*3 5.53 C 11.3 km/h
850 11-03-2021 22:50:00 7.7 C 6.32 g/m*3 5.65 C 11.3 km/h
Sensor: Nr:Datum:Temp:Abs-Feuchte:Windchill:Wind:
Aussen-T/F 851 11-03-2021 22:55:00 7.7 C 6.32 g/m*3 5.38 C 12.9 km/h
852 11-03-2021 23:00:00 7.8 C 6.37 g/m*3 5.51 C 12.9 km/h
853 11-03-2021 23:05:00 7.8 C 6.37 g/m*3 6.06 C 9.7 km/h
854 11-03-2021 23:10:00 7.9 C 6.41 g/m*3 6.52 C 8.1 km/h
855 11-03-2021 23:15:00 8 C 6.53 g/m*3 5.11 C 17.7 km/h
856 11-03-2021 23:20:00 7.6 C 6.61 g/m*3 4.25 C 20.9 km/h
857 11-03-2021 23:25:00 6.7 C 6.38 g/m*3 1.55 C 40.2 km/h
858 11-03-2021 23:30:00 6.1 C 6.36 g/m*3 1.44 C 30.6 km/h
859 11-03-2021 23:35:00 5.7 C 6.26 g/m*3 1.5 C 24.1 km/h
860 11-03-2021 23:40:00 5.4 C 6.21 g/m*3 1.47 C 20.9 km/h
861 11-03-2021 23:45:00 5.3 C 6.24 g/m*3 2.46 C 12.9 km/h
862 11-03-2021 23:50:00 5.2 C 6.27 g/m*3 2.07 C 14.5 km/h
863 11-03-2021 23:55:00 5.2 C 6.27 g/m*3 1.83 C 16.1 km/h

Legende:
   Min
   Max


Maximal/Minimal-Werte vom 14.04.2020 - 16.05.2020

Sensor Min Max Avg
Temp
(Aussen-T/F)
-0.1 °C
15-04-2020  06:55:00
26.2 °C
17-04-2020  18:05:00
11.98 °C

Die Daten stammen von einer Davis Vantage Pro 2 Wetter-Station und werden unter Linux mit der Software wview2wettercgi und aufbereitet. Alle Angaben erfolgen ohne Gewähr für ihre Vollständigkeit oder Richtigkeit.
Kontakt: Rainer Krienke krienke@uni-koblenz.de . Meine Webseiten an der Uni Koblenz oder privat.
Version: $Revision: 0.78 $